Time;durP1;ratioP1;P1;durP2;ratioP2;P2;SDS_P1;SDS_P2;PMS_P1;PMS_P2;Temp;Humidity;BMP_temperature;BMP_pressure;BME280_temperature;BME280_humidity;BME280_pressure;Samples;Min_cycle;Max_cycle;Signal;HPM_P1;HPM_P2
2022/12/13 00:00:13;;;;;;;3.35;2.53;;;;;;;15.98;79.20;100973.88;21046660;27;20135;-89
2022/12/13 00:10:14;;;;;;;4.40;3.05;;;;;;;15.97;79.11;100956.06;20286798;28;20532;-90
2022/12/13 00:27:30;;;;;;;3.45;2.50;;;;;;;15.96;78.86;100940.94;21191175;27;20132;-90
2022/12/13 00:37:31;;;;;;;3.80;2.65;;;;;;;15.72;78.95;100884.66;20742800;28;20060;-89
2022/12/13 00:53:16;;;;;;;3.30;2.50;;;;;;;15.76;78.54;100886.94;21171906;27;20127;-89
2022/12/13 01:03:19;;;;;;;3.40;2.55;;;;;;;15.94;78.36;100906.13;21037651;28;20056;-87
2022/12/13 01:19:44;;;;;;;3.25;2.30;;;;;;;15.95;78.29;100917.75;21160408;27;20476;-88
2022/12/13 01:29:44;;;;;;;3.60;2.47;;;;;;;15.83;78.51;100887.31;20728502;28;20052;-89
2022/12/13 01:46:13;;;;;;;4.32;2.60;;;;;;;15.75;77.92;100887.91;21187216;27;20128;-89
2022/12/13 01:56:22;;;;;;;4.07;2.90;;;;;;;15.94;77.94;100924.91;21018066;28;20454;-90
2022/12/13 02:13:24;;;;;;;3.47;2.55;;;;;;;15.74;77.87;100888.91;21189394;27;20128;-89
2022/12/13 02:24:04;;;;;;;2.65;2.28;;;;;;;15.93;77.69;100919.69;20828423;28;20052;-89
2022/12/13 02:34:23;;;;;;;2.78;2.40;;;;;;;15.92;77.64;100916.13;21188691;27;20123;-90
2022/12/13 02:44:36;;;;;;;2.95;2.25;;;;;;;15.80;77.47;100888.41;20719453;28;20057;-89
2022/12/13 03:00:54;;;;;;;2.95;2.50;;;;;;;15.69;77.25;100872.31;21189101;27;20120;-89
2022/12/13 03:11:04;;;;;;;2.70;2.03;;;;;;;15.65;77.19;100862.81;20896937;28;20121;-90
2022/12/13 03:22:11;;;;;;;2.95;2.20;;;;;;;15.64;77.23;100848.50;21091543;27;20137;-90
2022/12/13 03:32:11;;;;;;;2.58;2.17;;;;;;;15.91;76.89;100890.28;20920095;28;20063;-91
2022/12/13 03:42:38;;;;;;;3.85;3.00;;;;;;;15.90;76.78;100882.31;21189461;27;20116;-89
2022/12/13 03:52:39;;;;;;;3.40;2.60;;;;;;;15.80;76.79;100866.94;21025247;28;20048;-90
2022/12/13 04:09:22;;;;;;;3.75;2.40;;;;;;;15.90;76.54;100895.75;21186029;27;20116;-90
2022/12/13 04:19:23;;;;;;;2.63;2.10;;;;;;;15.89;76.32;100886.84;20700949;28;20064;-89
2022/12/13 04:36:06;;;;;;;3.00;2.30;;;;;;;15.89;76.32;100886.00;21186741;27;20132;-90
2022/12/13 04:46:07;;;;;;;2.42;2.08;;;;;;;15.88;76.38;100866.34;20935003;28;20492;-90
2022/12/13 05:03:19;;;;;;;2.80;2.22;;;;;;;15.66;75.91;100811.66;21168058;27;20127;-90
2022/12/13 05:13:19;;;;;;;3.03;2.35;;;;;;;15.63;76.02;100800.34;20702841;28;20063;-90
2022/12/13 05:30:03;;;;;;;3.35;2.47;;;;;;;15.88;75.74;100838.63;21172513;27;20495;-90
2022/12/13 05:40:06;;;;;;;3.10;2.45;;;;;;;15.88;75.91;100838.63;20692190;28;20838;-91
2022/12/13 05:56:46;;;;;;;2.78;2.17;;;;;;;15.86;75.62;100844.13;21188815;27;20128;-90
2022/12/13 06:06:47;;;;;;;3.05;2.60;;;;;;;15.71;75.59;100823.91;21045185;28;20527;-91
2022/12/13 06:23:33;;;;;;;3.97;2.90;;;;;;;16.00;74.99;100856.47;21809079;22;20103;-86
2022/12/13 06:33:35;;;;;;;5.32;3.45;;;;;;;16.06;72.24;100853.28;23032107;22;20047;-95
2022/12/13 06:51:56;;;;;;;6.28;4.38;;;;;;;16.44;66.72;100852.94;21101008;27;20129;-91
2022/12/13 07:01:58;;;;;;;5.65;4.10;;;;;;;16.07;66.42;100770.84;20413322;28;20061;-87
2022/12/13 07:19:21;;;;;;;4.50;3.75;;;;;;;16.25;67.23;100841.00;21094232;27;20129;-90
2022/12/13 07:29:24;;;;;;;4.95;4.03;;;;;;;16.23;67.63;100851.03;20898202;28;20084;-89
2022/12/13 07:47:08;;;;;;;5.57;4.60;;;;;;;16.36;67.55;100859.78;21187997;27;20388;-89
2022/12/13 07:57:08;;;;;;;5.38;3.65;;;;;;;16.27;68.11;100868.59;20770692;28;20053;-88
2022/12/13 08:14:05;;;;;;;4.95;4.20;;;;;;;16.13;68.95;100861.69;21180739;27;20131;-90
2022/12/13 08:24:06;;;;;;;5.22;3.80;;;;;;;15.99;69.21;100857.44;20931048;28;20750;-90
2022/12/13 08:34:21;;;;;;;4.60;3.65;;;;;;;16.06;69.63;100882.81;21187486;27;20124;-89
2022/12/13 08:44:22;;;;;;;5.22;4.10;;;;;;;16.04;69.99;100879.41;20908550;28;20056;-89
2022/12/13 09:01:25;;;;;;;4.57;3.53;;;;;;;16.02;70.10;100889.41;21172911;27;20124;-89
2022/12/13 09:11:26;;;;;;;4.15;3.30;;;;;;;15.85;70.27;100863.03;20926781;28;20060;-87
2022/12/13 09:28:38;;;;;;;5.30;4.65;;;;;;;16.29;69.59;100916.84;21183349;27;20428;-89
2022/12/13 09:38:39;;;;;;;4.30;3.72;;;;;;;16.23;69.51;100920.84;20907201;28;20051;-89
2022/12/13 09:48:55;;;;;;;6.10;4.38;;;;;;;16.17;70.02;100916.84;21189841;27;20212;-89
2022/12/13 09:59:02;;;;;;;5.75;4.38;;;;;;;16.02;70.29;100886.72;20886708;28;20033;-90
2022/12/13 10:09:22;;;;;;;4.85;3.78;;;;;;;16.09;70.38;100898.66;21153839;27;20493;-88
2022/12/13 10:19:39;;;;;;;4.50;3.58;;;;;;;15.96;70.45;100871.13;20837743;28;20056;-88
2022/12/13 10:36:30;;;;;;;5.17;4.50;;;;;;;16.30;69.65;100854.91;21187880;27;20396;-89
2022/12/13 10:46:31;;;;;;;4.80;3.92;;;;;;;16.23;69.86;100856.38;21009467;28;20036;-89
2022/12/13 11:03:31;;;;;;;5.35;3.70;;;;;;;16.13;70.22;100847.41;21158985;27;20125;-90
2022/12/13 11:13:37;;;;;;;5.43;4.00;;;;;;;16.09;70.79;100833.34;20931639;28;20453;-89
2022/12/13 11:31:17;;;;;;;4.47;3.53;;;;;;;16.04;71.00;100823.00;21187821;27;20128;-88
2022/12/13 11:41:28;;;;;;;4.53;3.47;;;;;;;15.78;70.92;100760.69;20988307;28;20042;-89
2022/12/13 11:58:43;;;;;;;4.30;3.40;;;;;;;15.72;71.15;100724.44;21136069;27;20132;-88
2022/12/13 12:09:12;;;;;;;4.65;3.83;;;;;;;15.28;70.94;100648.47;20223494;28;20155;-89
2022/12/13 12:19:36;;;;;;;4.60;3.22;;;;;;;16.02;71.08;100765.03;21070893;27;20126;-88
2022/12/13 12:30:07;;;;;;;4.85;3.67;;;;;;;16.01;71.27;100766.88;20602532;28;20049;-88
2022/12/13 12:47:27;;;;;;;4.82;3.10;;;;;;;16.00;71.32;100770.53;21054505;27;20127;-88
2022/12/13 12:57:50;;;;;;;4.60;3.30;;;;;;;16.01;71.41;100763.31;20594553;28;20056;-89
2022/12/13 13:08:26;;;;;;;4.78;3.33;;;;;;;16.00;71.39;100759.78;20997538;27;20134;-92
2022/12/13 13:18:44;;;;;;;5.13;3.80;;;;;;;16.01;71.12;100756.13;20404213;28;20060;-92
2022/12/13 13:29:20;;;;;;;4.72;3.83;;;;;;;16.01;71.46;100750.75;21004162;27;20138;-90
2022/12/13 13:39:36;;;;;;;5.03;3.65;;;;;;;16.00;71.03;100741.00;20305437;28;20051;-91
2022/12/13 13:57:00;;;;;;;4.22;3.22;;;;;;;15.99;71.53;100755.41;21060818;27;20497;-88
2022/12/13 14:07:20;;;;;;;5.18;3.40;;;;;;;15.74;71.46;100714.44;19861870;28;20081;-90
2022/12/13 14:18:19;;;;;;;3.65;3.35;;;;;;;15.99;71.65;100762.59;21069114;27;20127;-90
2022/12/13 14:28:40;;;;;;;4.07;3.22;;;;;;;15.93;71.37;100742.50;20116300;28;20092;-94
2022/12/13 14:38:40;;;;;;;4.18;3.63;;;;;;;16.00;71.29;100732.94;18309604;31;38127;-91
2022/12/13 14:48:47;;;;;;;4.10;3.40;;;;;;;15.83;71.55;100706.59;17962314;32;20063;-92
2022/12/13 14:58:54;;;;;;;4.03;3.30;;;;;;;16.01;71.59;100729.28;17953501;32;20694;-91
2022/12/13 15:08:55;;;;;;;3.55;3.13;;;;;;;16.02;71.90;100714.88;17974894;32;20067;-89
2022/12/13 15:19:06;;;;;;;4.32;2.90;;;;;;;15.76;72.01;100669.53;17959476;32;20082;-90
2022/12/13 15:29:17;;;;;;;4.00;3.08;;;;;;;15.91;72.28;100662.06;17925568;32;20119;-89
2022/12/13 15:47:54;;;;;;;5.10;3.97;;;;;;;16.02;72.31;100689.84;21068483;27;20575;-87
2022/12/13 15:57:56;;;;;;;4.50;3.40;;;;;;;15.80;72.42;100641.44;20409110;28;20174;-88
2022/12/13 16:13:37;;;;;;;4.95;3.50;;;;;;;16.01;72.57;100672.88;21124531;27;20123;-88
2022/12/13 16:23:37;;;;;;;3.97;3.30;;;;;;;16.01;72.57;100686.31;20264048;28;20129;-95
2022/12/13 16:39:47;;;;;;;4.55;3.50;;;;;;;15.93;72.82;100667.31;20965336;27;20462;-92
2022/12/13 16:49:49;;;;;;;5.13;3.50;;;;;;;16.06;73.12;100680.53;20893479;28;20095;-92
2022/12/13 16:59:51;;;;;;;6.32;3.67;;;;;;;16.05;73.12;100670.78;20940199;28;20047;-96
2022/12/13 17:09:53;;;;;;;7.65;3.83;;;;;;;16.03;72.90;100668.25;20927964;28;20048;-93
2022/12/13 17:19:54;;;;;;;6.05;3.55;;;;;;;16.01;72.92;100667.53;20934923;28;20044;-93
2022/12/13 17:29:56;;;;;;;5.38;3.80;;;;;;;15.70;72.98;100618.22;20921810;28;20409;-91
2022/12/13 17:39:58;;;;;;;4.68;3.40;;;;;;;15.98;73.00;100662.41;20865820;28;20175;-92
2022/12/13 17:49:59;;;;;;;4.95;3.58;;;;;;;15.97;72.80;100666.06;20860733;28;20390;-93
2022/12/13 18:00:02;;;;;;;4.90;3.22;;;;;;;15.96;73.06;100656.31;20873172;28;20057;-92
2022/12/13 18:10:13;;;;;;;4.63;3.40;;;;;;;15.96;72.88;100659.00;20968132;28;20048;-92
2022/12/13 18:20:15;;;;;;;4.03;3.08;;;;;;;15.95;72.93;100642.03;20967466;28;20412;-92
2022/12/13 18:30:16;;;;;;;5.13;3.88;;;;;;;15.95;72.88;100643.88;20967239;28;20094;-93
2022/12/13 18:40:18;;;;;;;3.67;3.00;;;;;;;15.79;72.96;100610.22;20949219;28;20132;-91
2022/12/13 18:50:19;;;;;;;4.05;2.95;;;;;;;15.78;72.69;100595.09;20967527;28;20408;-93
2022/12/13 19:00:23;;;;;;;3.55;3.03;;;;;;;15.94;72.78;100616.16;20955322;28;20440;-92
2022/12/13 19:10:24;;;;;;;4.45;3.28;;;;;;;15.94;72.72;100610.78;20964853;28;20044;-93
2022/12/13 19:20:26;;;;;;;3.72;2.97;;;;;;;15.76;72.73;100564.03;20962746;28;20505;-93
2022/12/13 19:30:27;;;;;;;4.20;3.10;;;;;;;15.68;72.75;100545.00;20961010;28;20041;-91
2022/12/13 19:40:29;;;;;;;4.60;3.17;;;;;;;15.94;72.56;100578.56;20962541;28;20482;-93
2022/12/13 19:50:30;;;;;;;3.55;2.83;;;;;;;15.73;72.46;100529.41;20951460;28;20127;-93
2022/12/13 20:00:32;;;;;;;4.15;3.30;;;;;;;15.66;72.47;100526.38;20886704;28;20565;-89
2022/12/13 20:10:34;;;;;;;3.63;2.88;;;;;;;15.94;72.86;100556.25;20878091;28;20056;-92
2022/12/13 20:20:36;;;;;;;5.38;3.20;;;;;;;15.94;72.41;100534.78;20793737;28;20588;-93
2022/12/13 20:31:06;;;;;;;4.45;2.90;;;;;;;15.94;72.57;100529.41;20872813;28;20044;-93
2022/12/13 20:41:10;;;;;;;4.07;3.05;;;;;;;15.94;72.35;100530.25;20877187;28;20583;-94
2022/12/13 20:51:16;;;;;;;3.80;3.10;;;;;;;15.94;72.40;100524.03;20858635;28;20147;-94
2022/12/13 21:01:32;;;;;;;4.10;3.00;;;;;;;15.95;72.57;100525.75;20876103;28;20052;-95
2022/12/13 21:11:35;;;;;;;4.05;3.00;;;;;;;15.94;72.34;100502.56;20873930;28;20041;-93
2022/12/13 21:21:37;;;;;;;3.83;2.88;;;;;;;15.94;72.48;100492.66;20881180;28;20520;-92
2022/12/13 21:31:41;;;;;;;4.40;3.25;;;;;;;15.63;72.33;100432.72;20890164;28;20068;-92
2022/12/13 21:41:43;;;;;;;3.63;3.00;;;;;;;15.95;72.21;100472.06;20892905;28;20459;-93
2022/12/13 21:51:45;;;;;;;4.25;3.30;;;;;;;15.95;72.29;100469.38;20886932;28;20036;-93
2022/12/13 22:12:22;;;;;;;3.13;2.72;;;;;;;15.94;72.25;100448.88;20887017;28;20044;-93
2022/12/13 22:22:24;;;;;;;4.22;3.13;;;;;;;15.59;72.08;100383.00;20884761;28;20448;-92
2022/12/13 22:32:28;;;;;;;4.25;3.00;;;;;;;15.95;72.12;100431.78;20883644;28;20063;-92
2022/12/13 22:42:29;;;;;;;2.85;2.33;;;;;;;15.95;72.15;100423.72;20867749;28;20387;-92
2022/12/13 22:52:31;;;;;;;4.13;2.72;;;;;;;15.93;72.21;100421.16;20930249;28;20505;-93
2022/12/13 23:02:35;;;;;;;4.40;2.95;;;;;;;15.95;71.88;100426.41;20948024;28;20574;-93
2022/12/13 23:22:57;;;;;;;4.38;3.33;;;;;;;15.36;71.90;100306.22;20963676;28;20044;-92
2022/12/13 23:32:58;;;;;;;4.15;3.67;;;;;;;15.70;71.97;100350.69;20962339;28;20048;-91
2022/12/13 23:43:00;;;;;;;3.83;3.00;;;;;;;15.67;72.01;100340.22;20943689;28;20152;-92
2022/12/13 23:53:02;;;;;;;4.15;3.05;;;;;;;15.95;72.11;100370.03;20950628;28;20052;-92
